sensor_id;sensor_type;location;lat;lon;timestamp;P1;durP1;ratioP1;P2;durP2;ratioP2
32152;SDS011;18656;50.580;11.392;2022-08-07T00:01:04;0.63;;;0.57;;
32152;SDS011;18656;50.580;11.392;2022-08-07T00:04:07;1.88;;;0.75;;
32152;SDS011;18656;50.580;11.392;2022-08-07T00:06:40;2.33;;;0.70;;
32152;SDS011;18656;50.580;11.392;2022-08-07T00:09:17;1.88;;;1.05;;
32152;SDS011;18656;50.580;11.392;2022-08-07T00:11:48;3.97;;;1.02;;
32152;SDS011;18656;50.580;11.392;2022-08-07T00:14:24;0.98;;;0.98;;
32152;SDS011;18656;50.580;11.392;2022-08-07T00:16:56;2.15;;;0.85;;
32152;SDS011;18656;50.580;11.392;2022-08-07T00:19:23;1.50;;;0.95;;
32152;SDS011;18656;50.580;11.392;2022-08-07T00:22:11;0.90;;;0.90;;
32152;SDS011;18656;50.580;11.392;2022-08-07T00:24:50;1.13;;;0.70;;
32152;SDS011;18656;50.580;11.392;2022-08-07T00:27:17;2.05;;;0.80;;
32152;SDS011;18656;50.580;11.392;2022-08-07T00:29:47;1.27;;;0.60;;
32152;SDS011;18656;50.580;11.392;2022-08-07T00:32:15;2.90;;;1.05;;
32152;SDS011;18656;50.580;11.392;2022-08-07T00:34:53;3.97;;;0.93;;
32152;SDS011;18656;50.580;11.392;2022-08-07T00:37:20;1.38;;;0.70;;
32152;SDS011;18656;50.580;11.392;2022-08-07T00:39:47;0.85;;;0.75;;
32152;SDS011;18656;50.580;11.392;2022-08-07T00:42:20;1.55;;;0.77;;
32152;SDS011;18656;50.580;11.392;2022-08-07T00:44:54;2.88;;;0.82;;
32152;SDS011;18656;50.580;11.392;2022-08-07T00:47:21;0.80;;;0.70;;
32152;SDS011;18656;50.580;11.392;2022-08-07T00:50:08;2.03;;;0.80;;
32152;SDS011;18656;50.580;11.392;2022-08-07T00:52:55;1.25;;;0.85;;
32152;SDS011;18656;50.580;11.392;2022-08-07T00:55:23;1.38;;;0.82;;
32152;SDS011;18656;50.580;11.392;2022-08-07T00:58:10;1.95;;;0.70;;
32152;SDS011;18656;50.580;11.392;2022-08-07T01:00:38;1.27;;;0.80;;
32152;SDS011;18656;50.580;11.392;2022-08-07T01:03:19;1.95;;;1.13;;
32152;SDS011;18656;50.580;11.392;2022-08-07T01:06:07;1.05;;;0.70;;
32152;SDS011;18656;50.580;11.392;2022-08-07T01:08:34;0.85;;;0.70;;
32152;SDS011;18656;50.580;11.392;2022-08-07T01:11:08;3.42;;;0.90;;
32152;SDS011;18656;50.580;11.392;2022-08-07T01:13:55;2.28;;;0.70;;
32152;SDS011;18656;50.580;11.392;2022-08-07T01:16:23;3.30;;;1.15;;
32152;SDS011;18656;50.580;11.392;2022-08-07T01:18:56;3.27;;;1.10;;
32152;SDS011;18656;50.580;11.392;2022-08-07T01:21:24;2.75;;;0.90;;
32152;SDS011;18656;50.580;11.392;2022-08-07T01:23:53;0.77;;;0.77;;
32152;SDS011;18656;50.580;11.392;2022-08-07T01:26:21;1.15;;;0.77;;
32152;SDS011;18656;50.580;11.392;2022-08-07T01:28:51;0.70;;;0.70;;
32152;SDS011;18656;50.580;11.392;2022-08-07T01:31:19;2.15;;;0.80;;
32152;SDS011;18656;50.580;11.392;2022-08-07T01:33:48;0.70;;;0.70;;
32152;SDS011;18656;50.580;11.392;2022-08-07T01:36:25;3.30;;;0.73;;
32152;SDS011;18656;50.580;11.392;2022-08-07T01:38:59;0.75;;;0.75;;
32152;SDS011;18656;50.580;11.392;2022-08-07T01:41:34;1.40;;;0.70;;
32152;SDS011;18656;50.580;11.392;2022-08-07T01:44:03;0.70;;;0.70;;
32152;SDS011;18656;50.580;11.392;2022-08-07T01:46:31;3.33;;;1.00;;
32152;SDS011;18656;50.580;11.392;2022-08-07T01:48:58;1.23;;;0.90;;
32152;SDS011;18656;50.580;11.392;2022-08-07T01:51:25;0.90;;;0.90;;
32152;SDS011;18656;50.580;11.392;2022-08-07T01:54:12;2.85;;;0.95;;
32152;SDS011;18656;50.580;11.392;2022-08-07T01:57:09;1.73;;;1.20;;
32152;SDS011;18656;50.580;11.392;2022-08-07T02:00:00;1.70;;;0.70;;
32152;SDS011;18656;50.580;11.392;2022-08-07T02:02:39;2.67;;;1.30;;
32152;SDS011;18656;50.580;11.392;2022-08-07T02:05:40;3.47;;;1.10;;
32152;SDS011;18656;50.580;11.392;2022-08-07T02:08:24;0.82;;;0.82;;
32152;SDS011;18656;50.580;11.392;2022-08-07T02:10:52;1.13;;;1.02;;
32152;SDS011;18656;50.580;11.392;2022-08-07T02:13:23;0.98;;;0.98;;
32152;SDS011;18656;50.580;11.392;2022-08-07T02:16:11;1.85;;;1.20;;
32152;SDS011;18656;50.580;11.392;2022-08-07T02:18:41;1.95;;;0.90;;
32152;SDS011;18656;50.580;11.392;2022-08-07T02:21:12;2.25;;;0.95;;
32152;SDS011;18656;50.580;11.392;2022-08-07T02:23:41;1.77;;;1.00;;
32152;SDS011;18656;50.580;11.392;2022-08-07T02:26:10;2.47;;;0.90;;
32152;SDS011;18656;50.580;11.392;2022-08-07T02:28:57;2.70;;;1.10;;
32152;SDS011;18656;50.580;11.392;2022-08-07T02:31:25;2.45;;;1.05;;
32152;SDS011;18656;50.580;11.392;2022-08-07T02:33:54;1.15;;;1.15;;
32152;SDS011;18656;50.580;11.392;2022-08-07T02:36:29;1.50;;;1.10;;
32152;SDS011;18656;50.580;11.392;2022-08-07T02:38:59;4.18;;;1.40;;
32152;SDS011;18656;50.580;11.392;2022-08-07T02:41:42;1.23;;;1.10;;
32152;SDS011;18656;50.580;11.392;2022-08-07T02:44:19;2.05;;;1.02;;
32152;SDS011;18656;50.580;11.392;2022-08-07T02:46:47;1.15;;;1.05;;
32152;SDS011;18656;50.580;11.392;2022-08-07T02:49:18;3.50;;;1.38;;
32152;SDS011;18656;50.580;11.392;2022-08-07T02:52:06;2.20;;;1.17;;
32152;SDS011;18656;50.580;11.392;2022-08-07T02:54:39;3.55;;;1.45;;
32152;SDS011;18656;50.580;11.392;2022-08-07T02:57:07;3.42;;;1.40;;
32152;SDS011;18656;50.580;11.392;2022-08-07T02:59:40;1.48;;;1.30;;
32152;SDS011;18656;50.580;11.392;2022-08-07T03:02:20;1.40;;;1.30;;
32152;SDS011;18656;50.580;11.392;2022-08-07T03:04:48;2.38;;;1.40;;
32152;SDS011;18656;50.580;11.392;2022-08-07T03:07:16;1.20;;;1.20;;
32152;SDS011;18656;50.580;11.392;2022-08-07T03:09:46;1.90;;;1.20;;
32152;SDS011;18656;50.580;11.392;2022-08-07T03:12:17;2.47;;;1.45;;
32152;SDS011;18656;50.580;11.392;2022-08-07T03:14:56;1.73;;;1.63;;
32152;SDS011;18656;50.580;11.392;2022-08-07T03:17:28;1.70;;;1.05;;
32152;SDS011;18656;50.580;11.392;2022-08-07T03:20:01;1.10;;;1.10;;
32152;SDS011;18656;50.580;11.392;2022-08-07T03:22:28;2.80;;;1.63;;
32152;SDS011;18656;50.580;11.392;2022-08-07T03:24:56;1.40;;;1.30;;
32152;SDS011;18656;50.580;11.392;2022-08-07T03:27:25;2.08;;;1.40;;
32152;SDS011;18656;50.580;11.392;2022-08-07T03:29:56;1.70;;;1.60;;
32152;SDS011;18656;50.580;11.392;2022-08-07T03:32:24;1.40;;;1.30;;
32152;SDS011;18656;50.580;11.392;2022-08-07T03:34:56;3.13;;;1.50;;
32152;SDS011;18656;50.580;11.392;2022-08-07T03:37:43;2.05;;;1.23;;
32152;SDS011;18656;50.580;11.392;2022-08-07T03:40:19;1.40;;;1.30;;
32152;SDS011;18656;50.580;11.392;2022-08-07T03:42:47;1.98;;;1.25;;
32152;SDS011;18656;50.580;11.392;2022-08-07T03:45:15;2.55;;;1.30;;
32152;SDS011;18656;50.580;11.392;2022-08-07T03:47:56;2.47;;;1.30;;
32152;SDS011;18656;50.580;11.392;2022-08-07T03:50:24;4.20;;;3.70;;
32152;SDS011;18656;50.580;11.392;2022-08-07T03:52:54;9.05;;;5.45;;
32152;SDS011;18656;50.580;11.392;2022-08-07T03:55:23;4.97;;;3.70;;
32152;SDS011;18656;50.580;11.392;2022-08-07T03:58:10;4.40;;;3.05;;
32152;SDS011;18656;50.580;11.392;2022-08-07T04:00:58;2.53;;;2.40;;
32152;SDS011;18656;50.580;11.392;2022-08-07T04:03:26;2.33;;;2.22;;
32152;SDS011;18656;50.580;11.392;2022-08-07T04:06:13;2.33;;;2.22;;
32152;SDS011;18656;50.580;11.392;2022-08-07T04:09:00;1.90;;;1.80;;
32152;SDS011;18656;50.580;11.392;2022-08-07T04:11:29;1.85;;;1.75;;
32152;SDS011;18656;50.580;11.392;2022-08-07T04:14:17;6.00;;;2.05;;
32152;SDS011;18656;50.580;11.392;2022-08-07T04:17:05;5.22;;;1.40;;
32152;SDS011;18656;50.580;11.392;2022-08-07T04:19:52;4.72;;;1.45;;
32152;SDS011;18656;50.580;11.392;2022-08-07T04:22:21;1.30;;;1.30;;
32152;SDS011;18656;50.580;11.392;2022-08-07T04:24:55;2.60;;;1.80;;
32152;SDS011;18656;50.580;11.392;2022-08-07T04:27:23;1.70;;;1.70;;
32152;SDS011;18656;50.580;11.392;2022-08-07T04:29:51;2.08;;;1.98;;
32152;SDS011;18656;50.580;11.392;2022-08-07T04:32:27;1.48;;;1.38;;
32152;SDS011;18656;50.580;11.392;2022-08-07T04:35:00;3.15;;;1.30;;
32152;SDS011;18656;50.580;11.392;2022-08-07T04:37:30;1.95;;;1.55;;
32152;SDS011;18656;50.580;11.392;2022-08-07T04:40:18;1.55;;;1.55;;
32152;SDS011;18656;50.580;11.392;2022-08-07T04:42:45;2.58;;;1.60;;
32152;SDS011;18656;50.580;11.392;2022-08-07T04:45:17;1.55;;;1.45;;
32152;SDS011;18656;50.580;11.392;2022-08-07T04:48:09;2.22;;;1.50;;
32152;SDS011;18656;50.580;11.392;2022-08-07T04:56:36;1.73;;;1.30;;
32152;SDS011;18656;50.580;11.392;2022-08-07T04:59:27;3.08;;;2.00;;
32152;SDS011;18656;50.580;11.392;2022-08-07T05:02:19;1.30;;;1.20;;
32152;SDS011;18656;50.580;11.392;2022-08-07T05:04:52;1.92;;;1.15;;
32152;SDS011;18656;50.580;11.392;2022-08-07T05:07:27;2.63;;;0.90;;
32152;SDS011;18656;50.580;11.392;2022-08-07T05:10:10;0.93;;;0.80;;
32152;SDS011;18656;50.580;11.392;2022-08-07T05:12:41;4.82;;;1.25;;
32152;SDS011;18656;50.580;11.392;2022-08-07T05:15:21;2.42;;;0.88;;
32152;SDS011;18656;50.580;11.392;2022-08-07T05:17:52;0.80;;;0.80;;
32152;SDS011;18656;50.580;11.392;2022-08-07T05:20:25;1.60;;;0.93;;
32152;SDS011;18656;50.580;11.392;2022-08-07T05:22:57;2.35;;;0.98;;
32152;SDS011;18656;50.580;11.392;2022-08-07T05:25:27;1.80;;;1.15;;
32152;SDS011;18656;50.580;11.392;2022-08-07T05:28:14;1.77;;;0.98;;
32152;SDS011;18656;50.580;11.392;2022-08-07T05:30:52;1.05;;;0.85;;
32152;SDS011;18656;50.580;11.392;2022-08-07T05:33:21;1.88;;;0.80;;
32152;SDS011;18656;50.580;11.392;2022-08-07T05:35:51;0.60;;;0.60;;
32152;SDS011;18656;50.580;11.392;2022-08-07T05:38:20;1.48;;;0.45;;
32152;SDS011;18656;50.580;11.392;2022-08-07T05:41:07;0.55;;;0.55;;
32152;SDS011;18656;50.580;11.392;2022-08-07T05:43:45;0.68;;;0.40;;
32152;SDS011;18656;50.580;11.392;2022-08-07T05:46:33;1.10;;;0.68;;
32152;SDS011;18656;50.580;11.392;2022-08-07T05:49:02;1.35;;;0.47;;
32152;SDS011;18656;50.580;11.392;2022-08-07T05:51:37;3.00;;;0.55;;
32152;SDS011;18656;50.580;11.392;2022-08-07T05:54:05;2.13;;;0.80;;
32152;SDS011;18656;50.580;11.392;2022-08-07T05:56:53;1.23;;;0.55;;
32152;SDS011;18656;50.580;11.392;2022-08-07T05:59:21;2.45;;;0.70;;
32152;SDS011;18656;50.580;11.392;2022-08-07T06:01:49;3.30;;;1.40;;
32152;SDS011;18656;50.580;11.392;2022-08-07T06:04:18;4.47;;;1.05;;
32152;SDS011;18656;50.580;11.392;2022-08-07T06:06:55;4.40;;;0.77;;
32152;SDS011;18656;50.580;11.392;2022-08-07T06:09:29;2.13;;;1.02;;
32152;SDS011;18656;50.580;11.392;2022-08-07T06:12:17;5.68;;;0.88;;
32152;SDS011;18656;50.580;11.392;2022-08-07T06:14:53;1.10;;;0.63;;
32152;SDS011;18656;50.580;11.392;2022-08-07T06:17:28;2.28;;;0.50;;
32152;SDS011;18656;50.580;11.392;2022-08-07T06:20:03;1.10;;;0.50;;
32152;SDS011;18656;50.580;11.392;2022-08-07T06:22:30;10.43;;;1.75;;
32152;SDS011;18656;50.580;11.392;2022-08-07T06:25:05;14.40;;;1.75;;
32152;SDS011;18656;50.580;11.392;2022-08-07T06:27:35;20.38;;;2.60;;
32152;SDS011;18656;50.580;11.392;2022-08-07T06:30:22;19.33;;;1.88;;
32152;SDS011;18656;50.580;11.392;2022-08-07T06:33:02;16.52;;;2.10;;
32152;SDS011;18656;50.580;11.392;2022-08-07T06:35:41;21.17;;;1.83;;
32152;SDS011;18656;50.580;11.392;2022-08-07T06:38:14;3.95;;;1.15;;
32152;SDS011;18656;50.580;11.392;2022-08-07T06:40:46;13.82;;;2.05;;
32152;SDS011;18656;50.580;11.392;2022-08-07T06:43:15;14.15;;;1.90;;
32152;SDS011;18656;50.580;11.392;2022-08-07T06:45:47;7.18;;;1.30;;
32152;SDS011;18656;50.580;11.392;2022-08-07T06:48:15;13.68;;;1.90;;
32152;SDS011;18656;50.580;11.392;2022-08-07T06:50:50;10.57;;;1.83;;
32152;SDS011;18656;50.580;11.392;2022-08-07T06:53:19;11.48;;;1.60;;
32152;SDS011;18656;50.580;11.392;2022-08-07T06:56:08;6.80;;;1.48;;
32152;SDS011;18656;50.580;11.392;2022-08-07T06:58:40;8.85;;;2.15;;
32152;SDS011;18656;50.580;11.392;2022-08-07T07:01:28;18.60;;;1.55;;
32152;SDS011;18656;50.580;11.392;2022-08-07T07:04:09;11.43;;;1.45;;
32152;SDS011;18656;50.580;11.392;2022-08-07T07:06:57;9.68;;;1.60;;
32152;SDS011;18656;50.580;11.392;2022-08-07T07:09:27;7.05;;;1.58;;
32152;SDS011;18656;50.580;11.392;2022-08-07T07:18:09;3.13;;;0.70;;
32152;SDS011;18656;50.580;11.392;2022-08-07T07:20:17;2.88;;;0.70;;
32152;SDS011;18656;50.580;11.392;2022-08-07T07:22:45;2.55;;;0.45;;
32152;SDS011;18656;50.580;11.392;2022-08-07T07:25:33;1.48;;;0.63;;
32152;SDS011;18656;50.580;11.392;2022-08-07T07:28:24;1.50;;;0.63;;
32152;SDS011;18656;50.580;11.392;2022-08-07T07:31:20;2.58;;;0.50;;
32152;SDS011;18656;50.580;11.392;2022-08-07T07:33:57;1.70;;;0.55;;
32152;SDS011;18656;50.580;11.392;2022-08-07T07:39:20;0.80;;;0.50;;
32152;SDS011;18656;50.580;11.392;2022-08-07T07:41:51;0.43;;;0.40;;
32152;SDS011;18656;50.580;11.392;2022-08-07T07:44:39;1.10;;;0.57;;
32152;SDS011;18656;50.580;11.392;2022-08-07T07:47:07;1.40;;;0.40;;
32152;SDS011;18656;50.580;11.392;2022-08-07T07:49:51;1.17;;;0.40;;
32152;SDS011;18656;50.580;11.392;2022-08-07T07:52:40;2.38;;;0.50;;
32152;SDS011;18656;50.580;11.392;2022-08-07T07:55:13;1.98;;;0.50;;
32152;SDS011;18656;50.580;11.392;2022-08-07T07:57:41;0.73;;;0.50;;
32152;SDS011;18656;50.580;11.392;2022-08-07T08:00:19;0.38;;;0.30;;
32152;SDS011;18656;50.580;11.392;2022-08-07T08:03:00;2.97;;;0.43;;
32152;SDS011;18656;50.580;11.392;2022-08-07T08:05:31;3.53;;;0.50;;
32152;SDS011;18656;50.580;11.392;2022-08-07T08:08:19;1.80;;;1.10;;
32152;SDS011;18656;50.580;11.392;2022-08-07T08:11:05;1.27;;;0.60;;
32152;SDS011;18656;50.580;11.392;2022-08-07T08:13:42;1.13;;;0.75;;
32152;SDS011;18656;50.580;11.392;2022-08-07T08:16:28;1.35;;;1.25;;
32152;SDS011;18656;50.580;11.392;2022-08-07T08:19:01;3.92;;;0.60;;
32152;SDS011;18656;50.580;11.392;2022-08-07T08:21:44;2.23;;;0.50;;
32152;SDS011;18656;50.580;11.392;2022-08-07T08:24:36;1.92;;;0.43;;
32152;SDS011;18656;50.580;11.392;2022-08-07T08:27:43;2.72;;;0.60;;
32152;SDS011;18656;50.580;11.392;2022-08-07T08:30:27;0.90;;;0.70;;
32152;SDS011;18656;50.580;11.392;2022-08-07T08:32:57;0.85;;;0.57;;
32152;SDS011;18656;50.580;11.392;2022-08-07T08:35:26;1.33;;;1.05;;
32152;SDS011;18656;50.580;11.392;2022-08-07T08:38:12;2.42;;;1.05;;
32152;SDS011;18656;50.580;11.392;2022-08-07T08:40:43;1.42;;;0.80;;
32152;SDS011;18656;50.580;11.392;2022-08-07T08:43:20;2.10;;;0.80;;
32152;SDS011;18656;50.580;11.392;2022-08-07T08:46:11;3.72;;;0.50;;
32152;SDS011;18656;50.580;11.392;2022-08-07T08:48:45;2.05;;;0.70;;
32152;SDS011;18656;50.580;11.392;2022-08-07T08:51:18;1.75;;;0.65;;
32152;SDS011;18656;50.580;11.392;2022-08-07T08:54:25;2.13;;;0.70;;
32152;SDS011;18656;50.580;11.392;2022-08-07T08:56:54;2.13;;;0.77;;
32152;SDS011;18656;50.580;11.392;2022-08-07T08:59:52;3.40;;;0.50;;
32152;SDS011;18656;50.580;11.392;2022-08-07T09:05:21;2.38;;;0.80;;
32152;SDS011;18656;50.580;11.392;2022-08-07T09:13:19;0.77;;;0.20;;
32152;SDS011;18656;50.580;11.392;2022-08-07T09:16:20;2.15;;;0.60;;
32152;SDS011;18656;50.580;11.392;2022-08-07T09:19:14;0.43;;;0.15;;
32152;SDS011;18656;50.580;11.392;2022-08-07T09:22:14;0.55;;;0.30;;
32152;SDS011;18656;50.580;11.392;2022-08-07T09:28:18;1.38;;;0.57;;
32152;SDS011;18656;50.580;11.392;2022-08-07T09:33:27;2.28;;;0.70;;
32152;SDS011;18656;50.580;11.392;2022-08-07T09:36:21;0.57;;;0.22;;
32152;SDS011;18656;50.580;11.392;2022-08-07T09:38:57;0.45;;;0.30;;
32152;SDS011;18656;50.580;11.392;2022-08-07T09:41:51;1.85;;;0.28;;
32152;SDS011;18656;50.580;11.392;2022-08-07T09:47:32;0.57;;;0.25;;
32152;SDS011;18656;50.580;11.392;2022-08-07T09:53:06;0.57;;;0.40;;
32152;SDS011;18656;50.580;11.392;2022-08-07T09:55:47;0.63;;;0.20;;
32152;SDS011;18656;50.580;11.392;2022-08-07T10:09:58;9.52;;;0.60;;
32152;SDS011;18656;50.580;11.392;2022-08-07T10:15:34;0.63;;;0.30;;
32152;SDS011;18656;50.580;11.392;2022-08-07T10:29:06;0.43;;;0.40;;
32152;SDS011;18656;50.580;11.392;2022-08-07T10:31:41;0.77;;;0.20;;
32152;SDS011;18656;50.580;11.392;2022-08-07T10:36:54;0.30;;;0.30;;
32152;SDS011;18656;50.580;11.392;2022-08-07T10:42:39;0.40;;;0.40;;
32152;SDS011;18656;50.580;11.392;2022-08-07T10:45:32;0.25;;;0.10;;
32152;SDS011;18656;50.580;11.392;2022-08-07T10:48:24;0.43;;;0.30;;
32152;SDS011;18656;50.580;11.392;2022-08-07T10:53:38;1.15;;;0.20;;
32152;SDS011;18656;50.580;11.392;2022-08-07T11:07:37;0.38;;;0.13;;
32152;SDS011;18656;50.580;11.392;2022-08-07T11:13:33;1.15;;;0.40;;
32152;SDS011;18656;50.580;11.392;2022-08-07T11:16:22;2.15;;;0.20;;
32152;SDS011;18656;50.580;11.392;2022-08-07T11:27:06;2.90;;;0.43;;
32152;SDS011;18656;50.580;11.392;2022-08-07T11:29:40;0.35;;;0.15;;
32152;SDS011;18656;50.580;11.392;2022-08-07T11:32:31;0.30;;;0.28;;
32152;SDS011;18656;50.580;11.392;2022-08-07T11:35:10;0.20;;;0.20;;
32152;SDS011;18656;50.580;11.392;2022-08-07T11:43:13;0.55;;;0.25;;
32152;SDS011;18656;50.580;11.392;2022-08-07T11:48:59;0.63;;;0.25;;
32152;SDS011;18656;50.580;11.392;2022-08-07T11:54:44;1.08;;;0.20;;
32152;SDS011;18656;50.580;11.392;2022-08-07T11:57:21;0.75;;;0.30;;
32152;SDS011;18656;50.580;11.392;2022-08-07T12:00:14;0.47;;;0.20;;
32152;SDS011;18656;50.580;11.392;2022-08-07T12:11:14;2.00;;;0.20;;
32152;SDS011;18656;50.580;11.392;2022-08-07T12:16:52;0.40;;;0.30;;
32152;SDS011;18656;50.580;11.392;2022-08-07T12:25:11;1.00;;;0.32;;
32152;SDS011;18656;50.580;11.392;2022-08-07T12:28:23;0.30;;;0.20;;
32152;SDS011;18656;50.580;11.392;2022-08-07T12:31:00;0.63;;;0.20;;
32152;SDS011;18656;50.580;11.392;2022-08-07T12:33:34;2.13;;;0.35;;
32152;SDS011;18656;50.580;11.392;2022-08-07T12:36:22;1.50;;;0.35;;
32152;SDS011;18656;50.580;11.392;2022-08-07T12:38:58;0.75;;;0.25;;
32152;SDS011;18656;50.580;11.392;2022-08-07T12:41:50;2.08;;;0.35;;
32152;SDS011;18656;50.580;11.392;2022-08-07T12:44:18;0.70;;;0.20;;
32152;SDS011;18656;50.580;11.392;2022-08-07T12:49:53;2.85;;;0.30;;
32152;SDS011;18656;50.580;11.392;2022-08-07T12:55:22;0.80;;;0.30;;
32152;SDS011;18656;50.580;11.392;2022-08-07T12:58:09;1.60;;;0.20;;
32152;SDS011;18656;50.580;11.392;2022-08-07T13:00:53;3.25;;;0.20;;
32152;SDS011;18656;50.580;11.392;2022-08-07T13:03:30;0.82;;;0.20;;
32152;SDS011;18656;50.580;11.392;2022-08-07T13:09:00;0.38;;;0.20;;
32152;SDS011;18656;50.580;11.392;2022-08-07T13:14:37;0.20;;;0.20;;
32152;SDS011;18656;50.580;11.392;2022-08-07T13:17:19;1.13;;;0.30;;
32152;SDS011;18656;50.580;11.392;2022-08-07T13:22:40;0.77;;;0.20;;
32152;SDS011;18656;50.580;11.392;2022-08-07T13:25:24;0.80;;;0.20;;
32152;SDS011;18656;50.580;11.392;2022-08-07T13:28:02;0.65;;;0.20;;
32152;SDS011;18656;50.580;11.392;2022-08-07T13:30:39;0.20;;;0.20;;
32152;SDS011;18656;50.580;11.392;2022-08-07T13:33:25;0.85;;;0.20;;
32152;SDS011;18656;50.580;11.392;2022-08-07T13:36:25;0.32;;;0.20;;
32152;SDS011;18656;50.580;11.392;2022-08-07T13:42:02;0.10;;;0.10;;
32152;SDS011;18656;50.580;11.392;2022-08-07T13:44:32;1.98;;;0.20;;
32152;SDS011;18656;50.580;11.392;2022-08-07T13:47:02;0.40;;;0.40;;
32152;SDS011;18656;50.580;11.392;2022-08-07T13:49:35;3.00;;;0.30;;
32152;SDS011;18656;50.580;11.392;2022-08-07T13:52:24;0.73;;;0.38;;
32152;SDS011;18656;50.580;11.392;2022-08-07T13:55:10;0.63;;;0.30;;
32152;SDS011;18656;50.580;11.392;2022-08-07T13:58:06;0.63;;;0.20;;
32152;SDS011;18656;50.580;11.392;2022-08-07T14:01:05;0.50;;;0.20;;
32152;SDS011;18656;50.580;11.392;2022-08-07T14:03:35;0.60;;;0.20;;
32152;SDS011;18656;50.580;11.392;2022-08-07T14:08:57;1.48;;;0.20;;
32152;SDS011;18656;50.580;11.392;2022-08-07T14:11:31;2.58;;;0.20;;
32152;SDS011;18656;50.580;11.392;2022-08-07T14:14:25;1.02;;;0.30;;
32152;SDS011;18656;50.580;11.392;2022-08-07T14:17:01;1.10;;;0.30;;
32152;SDS011;18656;50.580;11.392;2022-08-07T14:19:59;3.95;;;0.28;;
32152;SDS011;18656;50.580;11.392;2022-08-07T14:22:51;0.60;;;0.10;;
32152;SDS011;18656;50.580;11.392;2022-08-07T14:25:23;0.38;;;0.20;;
32152;SDS011;18656;50.580;11.392;2022-08-07T14:27:54;0.38;;;0.38;;
32152;SDS011;18656;50.580;11.392;2022-08-07T14:30:38;0.88;;;0.20;;
32152;SDS011;18656;50.580;11.392;2022-08-07T14:33:05;0.30;;;0.20;;
32152;SDS011;18656;50.580;11.392;2022-08-07T14:35:54;0.90;;;0.22;;
32152;SDS011;18656;50.580;11.392;2022-08-07T14:38:28;2.65;;;0.30;;
32152;SDS011;18656;50.580;11.392;2022-08-07T14:40:59;0.85;;;0.40;;
32152;SDS011;18656;50.580;11.392;2022-08-07T14:43:47;0.40;;;0.10;;
32152;SDS011;18656;50.580;11.392;2022-08-07T14:46:34;0.47;;;0.20;;
32152;SDS011;18656;50.580;11.392;2022-08-07T14:49:17;0.65;;;0.30;;
32152;SDS011;18656;50.580;11.392;2022-08-07T14:52:04;0.43;;;0.20;;
32152;SDS011;18656;50.580;11.392;2022-08-07T14:54:52;0.15;;;0.10;;
32152;SDS011;18656;50.580;11.392;2022-08-07T14:57:20;2.00;;;0.60;;
32152;SDS011;18656;50.580;11.392;2022-08-07T14:59:49;0.15;;;0.10;;
32152;SDS011;18656;50.580;11.392;2022-08-07T15:02:31;0.45;;;0.40;;
32152;SDS011;18656;50.580;11.392;2022-08-07T15:05:03;1.30;;;0.20;;
32152;SDS011;18656;50.580;11.392;2022-08-07T15:07:48;0.57;;;0.20;;
32152;SDS011;18656;50.580;11.392;2022-08-07T15:10:21;0.73;;;0.30;;
32152;SDS011;18656;50.580;11.392;2022-08-07T15:13:14;2.28;;;0.30;;
32152;SDS011;18656;50.580;11.392;2022-08-07T15:15:47;1.90;;;0.30;;
32152;SDS011;18656;50.580;11.392;2022-08-07T15:18:19;0.30;;;0.30;;
32152;SDS011;18656;50.580;11.392;2022-08-07T15:21:27;0.47;;;0.40;;
32152;SDS011;18656;50.580;11.392;2022-08-07T15:24:17;0.32;;;0.10;;
32152;SDS011;18656;50.580;11.392;2022-08-07T15:27:09;0.22;;;0.15;;
32152;SDS011;18656;50.580;11.392;2022-08-07T15:29:41;1.17;;;0.30;;
32152;SDS011;18656;50.580;11.392;2022-08-07T15:32:29;0.30;;;0.20;;
32152;SDS011;18656;50.580;11.392;2022-08-07T15:35:20;0.90;;;0.25;;
32152;SDS011;18656;50.580;11.392;2022-08-07T15:38:08;0.17;;;0.17;;
32152;SDS011;18656;50.580;11.392;2022-08-07T15:40:56;0.40;;;0.20;;
32152;SDS011;18656;50.580;11.392;2022-08-07T15:43:44;0.40;;;0.40;;
32152;SDS011;18656;50.580;11.392;2022-08-07T15:46:23;0.40;;;0.40;;
32152;SDS011;18656;50.580;11.392;2022-08-07T15:49:09;0.90;;;0.30;;
32152;SDS011;18656;50.580;11.392;2022-08-07T15:51:43;0.98;;;0.30;;
32152;SDS011;18656;50.580;11.392;2022-08-07T15:54:38;0.30;;;0.20;;
32152;SDS011;18656;50.580;11.392;2022-08-07T15:57:07;1.30;;;0.30;;
32152;SDS011;18656;50.580;11.392;2022-08-07T15:59:56;0.63;;;0.20;;
32152;SDS011;18656;50.580;11.392;2022-08-07T16:02:40;0.55;;;0.20;;
32152;SDS011;18656;50.580;11.392;2022-08-07T16:05:12;0.85;;;0.30;;
32152;SDS011;18656;50.580;11.392;2022-08-07T16:07:55;0.30;;;0.30;;
32152;SDS011;18656;50.580;11.392;2022-08-07T16:10:45;0.60;;;0.32;;
32152;SDS011;18656;50.580;11.392;2022-08-07T16:22:31;0.75;;;0.25;;
32152;SDS011;18656;50.580;11.392;2022-08-07T16:30:55;0.38;;;0.38;;
32152;SDS011;18656;50.580;11.392;2022-08-07T16:33:26;1.88;;;1.10;;
32152;SDS011;18656;50.580;11.392;2022-08-07T16:41:48;2.03;;;0.55;;
32152;SDS011;18656;50.580;11.392;2022-08-07T16:44:58;1.65;;;0.30;;
32152;SDS011;18656;50.580;11.392;2022-08-07T17:08:04;0.80;;;0.20;;
32152;SDS011;18656;50.580;11.392;2022-08-07T17:16:08;0.35;;;0.20;;
32152;SDS011;18656;50.580;11.392;2022-08-07T17:21:25;0.40;;;0.30;;
32152;SDS011;18656;50.580;11.392;2022-08-07T17:27:00;0.43;;;0.30;;
32152;SDS011;18656;50.580;11.392;2022-08-07T17:29:38;1.38;;;0.20;;
32152;SDS011;18656;50.580;11.392;2022-08-07T17:38:35;0.47;;;0.40;;
32152;SDS011;18656;50.580;11.392;2022-08-07T17:44:06;1.08;;;0.40;;
32152;SDS011;18656;50.580;11.392;2022-08-07T17:46:42;1.27;;;0.30;;
32152;SDS011;18656;50.580;11.392;2022-08-07T17:49:20;2.70;;;0.35;;
32152;SDS011;18656;50.580;11.392;2022-08-07T17:57:44;1.00;;;0.30;;
32152;SDS011;18656;50.580;11.392;2022-08-07T18:00:27;0.55;;;0.30;;
32152;SDS011;18656;50.580;11.392;2022-08-07T18:03:25;0.30;;;0.30;;
32152;SDS011;18656;50.580;11.392;2022-08-07T18:06:14;0.65;;;0.20;;
32152;SDS011;18656;50.580;11.392;2022-08-07T18:09:02;1.10;;;0.20;;
32152;SDS011;18656;50.580;11.392;2022-08-07T18:11:33;0.25;;;0.20;;
32152;SDS011;18656;50.580;11.392;2022-08-07T18:14:28;2.00;;;0.30;;
32152;SDS011;18656;50.580;11.392;2022-08-07T18:17:09;0.35;;;0.30;;
32152;SDS011;18656;50.580;11.392;2022-08-07T18:20:13;0.95;;;0.20;;
32152;SDS011;18656;50.580;11.392;2022-08-07T18:23:03;0.28;;;0.28;;
32152;SDS011;18656;50.580;11.392;2022-08-07T18:25:56;2.70;;;0.50;;
32152;SDS011;18656;50.580;11.392;2022-08-07T18:28:30;0.20;;;0.20;;
32152;SDS011;18656;50.580;11.392;2022-08-07T18:31:33;0.30;;;0.20;;
32152;SDS011;18656;50.580;11.392;2022-08-07T18:34:28;0.30;;;0.30;;
32152;SDS011;18656;50.580;11.392;2022-08-07T18:37:19;0.32;;;0.20;;
32152;SDS011;18656;50.580;11.392;2022-08-07T18:40:29;1.55;;;0.30;;
32152;SDS011;18656;50.580;11.392;2022-08-07T18:46:14;0.43;;;0.40;;
32152;SDS011;18656;50.580;11.392;2022-08-07T18:48:52;1.90;;;0.40;;
32152;SDS011;18656;50.580;11.392;2022-08-07T18:51:46;0.88;;;0.35;;
32152;SDS011;18656;50.580;11.392;2022-08-07T18:54:41;0.73;;;0.40;;
32152;SDS011;18656;50.580;11.392;2022-08-07T19:00:01;0.20;;;0.20;;
32152;SDS011;18656;50.580;11.392;2022-08-07T19:03:34;1.95;;;0.30;;
32152;SDS011;18656;50.580;11.392;2022-08-07T19:05:58;0.80;;;0.32;;
32152;SDS011;18656;50.580;11.392;2022-08-07T19:11:18;1.88;;;0.47;;
32152;SDS011;18656;50.580;11.392;2022-08-07T19:14:08;2.55;;;0.40;;
32152;SDS011;18656;50.580;11.392;2022-08-07T19:16:49;0.82;;;0.40;;
32152;SDS011;18656;50.580;11.392;2022-08-07T19:22:28;2.30;;;0.60;;